createdAt,value
2019-05-02T00:02:46.980Z,9.53
2019-05-02T00:07:53.885Z,11.77
2019-05-02T00:13:00.016Z,12.77
2019-05-02T00:18:05.791Z,10.63
2019-05-02T00:23:12.213Z,14.53
2019-05-02T00:28:17.985Z,9.53
2019-05-02T00:33:23.912Z,11.50
2019-05-02T00:38:33.277Z,11.53
2019-05-02T00:43:37.529Z,11.17
2019-05-02T00:48:46.290Z,13.40
2019-05-02T00:53:52.134Z,12.47
2019-05-02T00:59:02.307Z,14.13
2019-05-02T01:04:27.566Z,11.70
2019-05-02T01:09:32.768Z,12.33
2019-05-02T01:14:38.734Z,12.17
2019-05-02T01:19:47.314Z,11.67
2019-05-02T01:24:52.263Z,10.63
2019-05-02T01:30:01.670Z,11.13
2019-05-02T01:35:21.576Z,9.00
2019-05-02T01:40:28.205Z,10.87
2019-05-02T01:45:34.391Z,9.20
2019-05-02T01:50:40.070Z,11.33
2019-05-02T01:55:46.706Z,9.17
2019-05-02T02:00:52.773Z,12.17
2019-05-02T02:06:02.923Z,9.33
2019-05-02T02:11:06.571Z,12.50
2019-05-02T02:16:12.466Z,10.07
2019-05-02T02:21:25.074Z,9.43
2019-05-02T02:26:27.313Z,8.77
2019-05-02T02:31:39.605Z,10.60
2019-05-02T02:36:40.807Z,7.77
2019-05-02T02:41:52.318Z,8.40
2019-05-02T02:46:55.167Z,6.50
2019-05-02T02:52:04.762Z,7.00
2019-05-02T02:57:20.093Z,8.73
2019-05-02T03:02:15.922Z,6.73
2019-05-02T03:07:26.110Z,5.93
2019-05-02T03:12:36.172Z,5.97
2019-05-02T03:17:39.519Z,10.53
2019-05-02T03:22:45.373Z,8.57
2019-05-02T03:27:51.332Z,7.33
2019-05-02T03:33:06.480Z,9.60
2019-05-02T03:38:04.839Z,11.30
2019-05-02T03:43:10.682Z,6.97
2019-05-02T03:48:18.473Z,8.17
2019-05-02T03:53:25.611Z,5.77
2019-05-02T03:58:32.678Z,7.03
2019-05-02T04:03:40.691Z,10.17
2019-05-02T04:08:46.903Z,8.00
2019-05-02T04:13:54.140Z,5.30
2019-05-02T04:19:02.649Z,5.33
2019-05-02T04:24:13.388Z,5.63
2019-05-02T04:29:16.082Z,8.00
2019-05-02T04:34:22.001Z,8.20
2019-05-02T04:39:28.662Z,7.37
2019-05-02T04:44:40.768Z,8.27
2019-05-02T04:49:42.160Z,6.50
2019-05-02T04:54:48.806Z,6.33
2019-05-02T05:00:04.956Z,7.07
2019-05-02T05:05:02.247Z,4.70
2019-05-02T05:10:08.497Z,7.73
2019-05-02T05:15:33.697Z,8.03
2019-05-02T05:20:21.865Z,7.23
2019-05-02T05:25:29.286Z,5.23
2019-05-02T05:30:39.591Z,7.40
2019-05-02T05:35:43.372Z,6.90
2019-05-02T05:40:50.318Z,6.50
2019-05-02T05:46:08.993Z,6.63
2019-05-02T05:51:03.778Z,7.20
2019-05-02T05:56:09.548Z,8.77
2019-05-02T06:01:20.049Z,6.73
2019-05-02T06:06:24.393Z,7.57
2019-05-02T06:11:30.441Z,11.20
2019-05-02T06:16:36.143Z,7.50
2019-05-02T06:21:45.241Z,8.03
2019-05-02T06:26:51.800Z,6.77
2019-05-02T06:32:02.240Z,9.80
2019-05-02T06:37:13.451Z,13.33
2019-05-02T06:42:16.570Z,10.57
2019-05-02T06:47:22.951Z,8.93
2019-05-02T06:52:32.769Z,11.43
2019-05-02T06:57:36.185Z,11.23
2019-05-02T07:02:42.052Z,8.57
2019-05-02T07:07:48.031Z,7.10
2019-05-02T07:13:09.840Z,8.47
2019-05-02T07:18:05.470Z,10.33
2019-05-02T07:23:16.095Z,9.13
2019-05-02T07:28:19.129Z,7.87
2019-05-02T07:33:25.070Z,11.43
2019-05-02T07:38:31.970Z,7.43
2019-05-02T07:43:37.814Z,8.17
2019-05-02T07:48:43.829Z,9.47
2019-05-02T07:53:49.815Z,13.07
2019-05-02T07:58:55.657Z,9.47
2019-05-02T08:04:04.642Z,13.83
2019-05-02T08:09:10.005Z,10.53
2019-05-02T08:14:15.828Z,10.40
2019-05-02T08:19:23.681Z,10.40
2019-05-02T08:24:33.062Z,11.63
2019-05-02T08:29:38.389Z,10.37
2019-05-02T08:34:46.229Z,9.47
2019-05-02T08:39:53.127Z,12.77
2019-05-02T08:45:00.979Z,14.90
2019-05-02T08:50:08.197Z,16.63
2019-05-02T08:55:15.487Z,12.93
2019-05-02T09:00:22.312Z,15.27
2019-05-02T09:05:29.562Z,16.00
2019-05-02T09:10:37.093Z,14.27
2019-05-02T09:15:49.697Z,16.50
2019-05-02T09:20:54.891Z,14.23
2019-05-02T09:26:02.443Z,14.83
2019-05-02T09:31:08.485Z,15.07
2019-05-02T09:36:14.722Z,18.27
2019-05-02T09:41:22.231Z,15.80
2019-05-02T09:46:28.661Z,16.23
2019-05-02T09:51:35.034Z,15.70
2019-05-02T09:56:43.080Z,15.67
2019-05-02T10:01:49.024Z,16.23
2019-05-02T10:06:55.009Z,16.77
2019-05-02T10:12:02.020Z,16.83
2019-05-02T10:17:12.786Z,12.90
2019-05-02T10:22:22.816Z,19.90
2019-05-02T10:27:28.315Z,18.13
2019-05-02T10:32:34.197Z,14.63
2019-05-02T10:37:42.924Z,13.83
2019-05-02T10:42:48.239Z,16.20
2019-05-02T10:47:54.154Z,15.53
2019-05-02T10:53:05.345Z,13.73
2019-05-02T10:58:07.637Z,14.33
2019-05-02T11:03:26.932Z,15.57
2019-05-02T11:08:36.680Z,17.23
2019-05-02T11:13:47.787Z,20.10
2019-05-02T11:19:02.509Z,20.33
2019-05-02T11:24:12.159Z,16.37
2019-05-02T11:29:17.711Z,14.07
2019-05-02T11:34:23.590Z,14.83
2019-05-02T11:39:37.874Z,18.03
2019-05-02T11:44:37.957Z,16.07
2019-05-02T11:49:46.898Z,15.70
2019-05-02T11:54:52.087Z,13.43
2019-05-02T11:59:59.433Z,10.87
2019-05-02T12:05:10.354Z,10.63
2019-05-02T12:10:17.003Z,11.10
2019-05-02T12:15:22.810Z,17.03
2019-05-02T12:20:32.842Z,13.00
2019-05-02T12:25:37.265Z,12.20
2019-05-02T12:30:43.132Z,11.27
2019-05-02T12:35:49.058Z,11.93
2019-05-02T12:40:57.847Z,11.73
2019-05-02T12:46:02.483Z,13.47
2019-05-02T12:51:08.310Z,10.90
2019-05-02T12:56:14.229Z,13.62
2019-05-02T13:01:21.827Z,12.67
2019-05-02T13:06:27.868Z,14.23
2019-05-02T13:11:37.021Z,9.67
2019-05-02T13:16:43.181Z,9.90
2019-05-02T13:22:02.240Z,8.63
2019-05-02T13:27:12.602Z,7.93
2019-05-02T13:32:21.798Z,8.93
2019-05-02T13:37:27.997Z,8.13
2019-05-02T13:42:33.856Z,7.23
2019-05-02T13:47:39.828Z,7.37
2019-05-02T13:52:52.963Z,9.73
2019-05-02T13:57:53.510Z,13.57
2019-05-02T14:02:59.284Z,12.07
2019-05-02T14:08:13.554Z,14.27
2019-05-02T14:13:19.457Z,12.43
2019-05-02T14:23:45.823Z,12.40
2019-05-02T14:28:53.238Z,13.23
2019-05-02T14:34:17.319Z,9.80
2019-05-02T14:39:23.797Z,9.87
2019-05-02T14:44:58.390Z,9.20
2019-05-02T14:49:37.385Z,9.97
2019-05-02T14:54:47.741Z,10.70
2019-05-02T14:59:59.131Z,10.13
2019-05-02T15:04:58.936Z,10.67
2019-05-02T15:10:06.656Z,12.20
2019-05-02T15:15:12.822Z,10.37
2019-05-02T15:20:18.693Z,12.83
2019-05-02T15:25:24.526Z,11.03
2019-05-02T15:30:30.438Z,11.20
2019-05-02T15:35:43.950Z,11.37
2019-05-02T15:40:52.920Z,11.30
2019-05-02T15:45:57.454Z,11.67
2019-05-02T15:51:06.100Z,14.13
2019-05-02T15:56:15.761Z,14.10
2019-05-02T16:01:29.187Z,11.17
2019-05-02T16:06:35.024Z,12.37
2019-05-02T16:11:40.952Z,10.77
2019-05-02T16:16:46.890Z,12.90
2019-05-02T16:21:59.469Z,11.30
2019-05-02T16:27:05.324Z,9.40
2019-05-02T16:32:18.571Z,14.17
2019-05-02T16:37:24.623Z,10.90
2019-05-02T16:42:32.702Z,17.30
2019-05-02T16:47:38.207Z,20.03
2019-05-02T16:52:47.318Z,18.53
2019-05-02T16:57:56.522Z,18.03
2019-05-02T17:02:59.610Z,19.83
2019-05-02T17:08:10.764Z,15.87
2019-05-02T17:13:14.625Z,18.63
2019-05-02T17:18:22.614Z,19.30
2019-05-02T17:23:28.819Z,22.60
2019-05-02T17:28:38.030Z,24.33
2019-05-02T17:33:46.193Z,21.13
2019-05-02T17:38:53.806Z,27.07
2019-05-02T17:43:59.175Z,26.50
2019-05-02T17:49:05.283Z,24.30
2019-05-02T17:54:12.029Z,22.60
2019-05-02T17:59:18.251Z,22.13
2019-05-02T18:04:24.129Z,21.50
2019-05-02T18:09:31.701Z,23.63
2019-05-02T18:14:37.814Z,21.17
2019-05-02T18:19:43.705Z,19.83
2019-05-02T18:24:49.722Z,20.70
2019-05-02T18:29:55.627Z,19.80
2019-05-02T18:35:05.988Z,21.30
2019-05-02T18:40:09.505Z,20.53
2019-05-02T18:45:26.850Z,21.03
2019-05-02T18:50:36.750Z,21.20
2019-05-02T18:55:42.508Z,20.73
2019-05-02T19:00:48.656Z,23.77
2019-05-02T19:05:57.198Z,21.43
2019-05-02T19:11:08.951Z,24.30
2019-05-02T19:16:09.731Z,20.77
2019-05-02T19:21:15.637Z,21.77
2019-05-02T19:26:22.087Z,23.07
2019-05-02T19:31:31.931Z,25.87
2019-05-02T19:36:37.318Z,25.83
2019-05-02T19:41:43.897Z,26.70
2019-05-02T19:46:51.967Z,25.30
2019-05-02T19:51:58.331Z,15.83
2019-05-02T19:57:04.294Z,9.37
2019-05-02T20:02:11.931Z,5.47
2019-05-02T20:07:18.166Z,5.27
2019-05-02T20:12:24.138Z,5.33
2019-05-02T20:17:32.464Z,3.60
2019-05-02T20:22:40.940Z,5.00
2019-05-02T20:27:45.423Z,3.83
2019-05-02T20:32:51.805Z,3.30
2019-05-02T20:37:58.593Z,5.00
2019-05-02T20:43:04.935Z,4.83
2019-05-02T20:48:11.883Z,3.03
2019-05-02T20:53:28.032Z,3.53
2019-05-02T20:58:26.672Z,4.67
2019-05-02T21:03:32.674Z,5.70
2019-05-02T21:08:41.904Z,6.57
2019-05-02T21:13:47.566Z,4.40
2019-05-02T21:18:53.535Z,3.20
2019-05-02T21:23:59.617Z,5.03
2019-05-02T21:29:05.651Z,5.50
2019-05-02T21:34:11.839Z,8.40
2019-05-02T21:39:18.925Z,4.73
2019-05-02T21:44:26.051Z,5.10
2019-05-02T21:49:37.723Z,4.70
2019-05-02T22:00:45.852Z,6.10
2019-05-02T22:05:52.124Z,4.83
2019-05-02T22:10:57.991Z,5.93
2019-05-02T22:16:03.880Z,5.80
2019-05-02T22:21:09.731Z,5.57
2019-05-02T22:26:15.605Z,5.20
2019-05-02T22:31:22.735Z,6.23
2019-05-02T22:36:28.676Z,7.20
2019-05-02T22:41:34.437Z,7.23
2019-05-02T22:46:43.123Z,5.30
2019-05-02T22:51:49.232Z,5.63
2019-05-02T22:56:55.363Z,5.93
2019-05-02T23:02:02.432Z,5.67
2019-05-02T23:07:08.308Z,6.37
2019-05-02T23:12:14.138Z,5.57
2019-05-02T23:17:19.947Z,3.97
2019-05-02T23:22:26.000Z,6.30
2019-05-02T23:27:51.918Z,4.90
2019-05-02T23:32:57.744Z,4.77
2019-05-02T23:38:03.656Z,6.10
2019-05-02T23:43:09.399Z,6.83
2019-05-02T23:48:15.273Z,5.50
2019-05-02T23:53:22.132Z,4.70
2019-05-02T23:58:27.912Z,5.20
